sensor_id;sensor_type;location;lat;lon;timestamp;P1;durP1;ratioP1;P2;durP2;ratioP2
32964;SDS011;19317;48.226;11.686;2022-11-20T00:04:48;2.80;;;2.60;;
32964;SDS011;19317;48.226;11.686;2022-11-20T00:09:39;2.73;;;2.50;;
32964;SDS011;19317;48.226;11.686;2022-11-20T00:14:30;2.93;;;2.73;;
32964;SDS011;19317;48.226;11.686;2022-11-20T00:19:21;2.30;;;2.10;;
32964;SDS011;19317;48.226;11.686;2022-11-20T00:24:12;2.70;;;2.50;;
32964;SDS011;19317;48.226;11.686;2022-11-20T00:29:03;2.47;;;2.27;;
32964;SDS011;19317;48.226;11.686;2022-11-20T00:33:54;3.63;;;2.87;;
32964;SDS011;19317;48.226;11.686;2022-11-20T00:38:45;2.63;;;2.20;;
32964;SDS011;19317;48.226;11.686;2022-11-20T00:43:36;2.43;;;2.23;;
32964;SDS011;19317;48.226;11.686;2022-11-20T00:48:27;3.40;;;2.80;;
32964;SDS011;19317;48.226;11.686;2022-11-20T00:53:18;2.67;;;2.47;;
32964;SDS011;19317;48.226;11.686;2022-11-20T00:58:09;2.60;;;2.40;;
32964;SDS011;19317;48.226;11.686;2022-11-20T01:03:00;2.70;;;2.50;;
32964;SDS011;19317;48.226;11.686;2022-11-20T01:07:51;2.70;;;2.50;;
32964;SDS011;19317;48.226;11.686;2022-11-20T01:12:42;4.17;;;2.67;;
32964;SDS011;19317;48.226;11.686;2022-11-20T01:17:32;2.80;;;2.60;;
32964;SDS011;19317;48.226;11.686;2022-11-20T01:22:23;2.80;;;2.60;;
32964;SDS011;19317;48.226;11.686;2022-11-20T01:27:14;3.10;;;2.80;;
32964;SDS011;19317;48.226;11.686;2022-11-20T01:32:05;2.70;;;2.50;;
32964;SDS011;19317;48.226;11.686;2022-11-20T01:36:56;4.03;;;3.20;;
32964;SDS011;19317;48.226;11.686;2022-11-20T01:41:47;3.73;;;2.80;;
32964;SDS011;19317;48.226;11.686;2022-11-20T01:46:38;3.87;;;3.07;;
32964;SDS011;19317;48.226;11.686;2022-11-20T01:51:53;2.53;;;2.33;;
32964;SDS011;19317;48.226;11.686;2022-11-20T01:56:45;2.97;;;2.67;;
32964;SDS011;19317;48.226;11.686;2022-11-20T02:01:37;3.13;;;2.83;;
32964;SDS011;19317;48.226;11.686;2022-11-20T02:06:42;2.80;;;2.60;;
32964;SDS011;19317;48.226;11.686;2022-11-20T02:11:34;2.70;;;2.50;;
32964;SDS011;19317;48.226;11.686;2022-11-20T02:16:25;2.80;;;2.60;;
32964;SDS011;19317;48.226;11.686;2022-11-20T02:26:14;2.60;;;2.40;;
32964;SDS011;19317;48.226;11.686;2022-11-20T02:31:06;2.93;;;2.60;;
32964;SDS011;19317;48.226;11.686;2022-11-20T02:35:57;3.07;;;2.77;;
32964;SDS011;19317;48.226;11.686;2022-11-20T02:40:48;2.60;;;2.40;;
32964;SDS011;19317;48.226;11.686;2022-11-20T02:45:39;3.43;;;2.80;;
32964;SDS011;19317;48.226;11.686;2022-11-20T02:50:30;3.17;;;2.87;;
32964;SDS011;19317;48.226;11.686;2022-11-20T02:55:21;2.90;;;2.60;;
32964;SDS011;19317;48.226;11.686;2022-11-20T03:00:12;2.77;;;2.57;;
32964;SDS011;19317;48.226;11.686;2022-11-20T03:05:03;2.70;;;2.50;;
32964;SDS011;19317;48.226;11.686;2022-11-20T03:09:54;3.03;;;2.40;;
32964;SDS011;19317;48.226;11.686;2022-11-20T03:14:44;3.67;;;2.93;;
32964;SDS011;19317;48.226;11.686;2022-11-20T03:19:37;2.40;;;2.20;;
32964;SDS011;19317;48.226;11.686;2022-11-20T03:24:27;2.80;;;2.50;;
32964;SDS011;19317;48.226;11.686;2022-11-20T03:29:18;2.33;;;2.20;;
32964;SDS011;19317;48.226;11.686;2022-11-20T03:34:10;4.37;;;2.70;;
32964;SDS011;19317;48.226;11.686;2022-11-20T03:39:01;2.60;;;2.40;;
32964;SDS011;19317;48.226;11.686;2022-11-20T03:43:59;2.40;;;2.20;;
32964;SDS011;19317;48.226;11.686;2022-11-20T03:48:50;2.83;;;2.40;;
32964;SDS011;19317;48.226;11.686;2022-11-20T03:53:42;2.63;;;2.30;;
32964;SDS011;19317;48.226;11.686;2022-11-20T03:58:33;2.77;;;2.57;;
32964;SDS011;19317;48.226;11.686;2022-11-20T04:03:25;2.70;;;2.50;;
32964;SDS011;19317;48.226;11.686;2022-11-20T04:08:16;2.63;;;2.43;;
32964;SDS011;19317;48.226;11.686;2022-11-20T04:13:07;4.70;;;2.43;;
32964;SDS011;19317;48.226;11.686;2022-11-20T04:17:58;3.40;;;2.33;;
32964;SDS011;19317;48.226;11.686;2022-11-20T04:22:48;4.63;;;2.40;;
32964;SDS011;19317;48.226;11.686;2022-11-20T04:27:39;2.67;;;2.47;;
32964;SDS011;19317;48.226;11.686;2022-11-20T04:32:30;2.43;;;2.23;;
32964;SDS011;19317;48.226;11.686;2022-11-20T04:37:21;2.90;;;2.57;;
32964;SDS011;19317;48.226;11.686;2022-11-20T04:42:12;2.50;;;2.30;;
32964;SDS011;19317;48.226;11.686;2022-11-20T04:47:03;3.03;;;2.40;;
32964;SDS011;19317;48.226;11.686;2022-11-20T04:51:54;2.40;;;2.20;;
32964;SDS011;19317;48.226;11.686;2022-11-20T04:56:44;2.90;;;2.60;;
32964;SDS011;19317;48.226;11.686;2022-11-20T05:01:35;2.60;;;2.40;;
32964;SDS011;19317;48.226;11.686;2022-11-20T05:06:26;2.60;;;2.40;;
32964;SDS011;19317;48.226;11.686;2022-11-20T05:11:18;3.90;;;2.83;;
32964;SDS011;19317;48.226;11.686;2022-11-20T05:16:11;2.80;;;2.47;;
32964;SDS011;19317;48.226;11.686;2022-11-20T05:21:02;2.50;;;2.30;;
32964;SDS011;19317;48.226;11.686;2022-11-20T05:25:53;2.60;;;2.33;;
32964;SDS011;19317;48.226;11.686;2022-11-20T05:30:44;3.17;;;2.23;;
32964;SDS011;19317;48.226;11.686;2022-11-20T05:35:35;3.60;;;2.30;;
32964;SDS011;19317;48.226;11.686;2022-11-20T05:40:26;2.23;;;2.13;;
32964;SDS011;19317;48.226;11.686;2022-11-20T05:45:17;2.50;;;2.30;;
32964;SDS011;19317;48.226;11.686;2022-11-20T05:50:08;2.60;;;2.40;;
32964;SDS011;19317;48.226;11.686;2022-11-20T05:54:59;2.63;;;2.43;;
32964;SDS011;19317;48.226;11.686;2022-11-20T05:59:50;3.00;;;2.40;;
32964;SDS011;19317;48.226;11.686;2022-11-20T06:04:40;2.60;;;2.40;;
32964;SDS011;19317;48.226;11.686;2022-11-20T06:09:31;2.40;;;2.20;;
32964;SDS011;19317;48.226;11.686;2022-11-20T06:14:22;3.07;;;2.63;;
32964;SDS011;19317;48.226;11.686;2022-11-20T06:19:13;4.10;;;2.53;;
32964;SDS011;19317;48.226;11.686;2022-11-20T06:24:04;2.80;;;2.60;;
32964;SDS011;19317;48.226;11.686;2022-11-20T06:28:55;2.40;;;2.20;;
32964;SDS011;19317;48.226;11.686;2022-11-20T06:33:47;2.53;;;2.33;;
32964;SDS011;19317;48.226;11.686;2022-11-20T06:38:38;2.60;;;2.40;;
32964;SDS011;19317;48.226;11.686;2022-11-20T06:43:29;2.80;;;2.60;;
32964;SDS011;19317;48.226;11.686;2022-11-20T06:48:20;2.50;;;2.30;;
32964;SDS011;19317;48.226;11.686;2022-11-20T06:53:11;2.60;;;2.40;;
32964;SDS011;19317;48.226;11.686;2022-11-20T06:58:02;3.07;;;2.70;;
32964;SDS011;19317;48.226;11.686;2022-11-20T07:02:53;2.37;;;2.17;;
32964;SDS011;19317;48.226;11.686;2022-11-20T07:07:43;2.30;;;2.10;;
32964;SDS011;19317;48.226;11.686;2022-11-20T07:12:34;2.50;;;2.30;;
32964;SDS011;19317;48.226;11.686;2022-11-20T07:17:25;3.07;;;2.03;;
32964;SDS011;19317;48.226;11.686;2022-11-20T07:22:16;2.40;;;2.20;;
32964;SDS011;19317;48.226;11.686;2022-11-20T07:27:07;2.43;;;2.20;;
32964;SDS011;19317;48.226;11.686;2022-11-20T07:31:58;2.50;;;2.30;;
32964;SDS011;19317;48.226;11.686;2022-11-20T07:36:49;2.43;;;2.20;;
32964;SDS011;19317;48.226;11.686;2022-11-20T07:41:40;2.50;;;2.30;;
32964;SDS011;19317;48.226;11.686;2022-11-20T07:46:31;2.63;;;2.43;;
32964;SDS011;19317;48.226;11.686;2022-11-20T07:51:21;2.60;;;2.40;;
32964;SDS011;19317;48.226;11.686;2022-11-20T07:56:12;2.57;;;2.17;;
32964;SDS011;19317;48.226;11.686;2022-11-20T08:01:07;2.10;;;1.90;;
32964;SDS011;19317;48.226;11.686;2022-11-20T08:05:58;2.50;;;2.30;;
32964;SDS011;19317;48.226;11.686;2022-11-20T08:10:49;2.30;;;2.10;;
32964;SDS011;19317;48.226;11.686;2022-11-20T08:15:40;2.40;;;2.20;;
32964;SDS011;19317;48.226;11.686;2022-11-20T08:20:31;2.27;;;2.17;;
32964;SDS011;19317;48.226;11.686;2022-11-20T08:25:22;1.87;;;1.77;;
32964;SDS011;19317;48.226;11.686;2022-11-20T08:30:13;3.80;;;2.50;;
32964;SDS011;19317;48.226;11.686;2022-11-20T08:35:04;2.50;;;2.30;;
32964;SDS011;19317;48.226;11.686;2022-11-20T08:39:55;2.27;;;2.10;;
32964;SDS011;19317;48.226;11.686;2022-11-20T08:44:46;2.30;;;2.10;;
32964;SDS011;19317;48.226;11.686;2022-11-20T08:49:37;3.10;;;2.63;;
32964;SDS011;19317;48.226;11.686;2022-11-20T08:54:28;2.37;;;2.17;;
32964;SDS011;19317;48.226;11.686;2022-11-20T08:59:19;2.27;;;2.07;;
32964;SDS011;19317;48.226;11.686;2022-11-20T09:04:09;2.53;;;2.10;;
32964;SDS011;19317;48.226;11.686;2022-11-20T09:09:00;2.43;;;2.23;;
32964;SDS011;19317;48.226;11.686;2022-11-20T09:13:51;2.50;;;2.30;;
32964;SDS011;19317;48.226;11.686;2022-11-20T09:18:42;2.57;;;2.37;;
32964;SDS011;19317;48.226;11.686;2022-11-20T09:23:34;2.40;;;2.20;;
32964;SDS011;19317;48.226;11.686;2022-11-20T09:28:25;3.83;;;2.50;;
32964;SDS011;19317;48.226;11.686;2022-11-20T09:33:16;3.70;;;2.10;;
32964;SDS011;19317;48.226;11.686;2022-11-20T09:38:07;2.37;;;2.17;;
32964;SDS011;19317;48.226;11.686;2022-11-20T09:43:03;2.40;;;2.20;;
32964;SDS011;19317;48.226;11.686;2022-11-20T09:57:54;2.10;;;2.00;;
32964;SDS011;19317;48.226;11.686;2022-11-20T10:02:52;1.93;;;1.83;;
32964;SDS011;19317;48.226;11.686;2022-11-20T10:07:51;2.43;;;1.90;;
32964;SDS011;19317;48.226;11.686;2022-11-20T10:33:27;2.50;;;2.30;;
32964;SDS011;19317;48.226;11.686;2022-11-20T10:38:29;1.87;;;1.77;;
32964;SDS011;19317;48.226;11.686;2022-11-20T10:43:28;2.90;;;2.20;;
32964;SDS011;19317;48.226;11.686;2022-11-20T10:48:23;2.17;;;1.93;;
32964;SDS011;19317;48.226;11.686;2022-11-20T10:53:27;1.87;;;1.70;;
32964;SDS011;19317;48.226;11.686;2022-11-20T11:03:27;1.80;;;1.70;;
32964;SDS011;19317;48.226;11.686;2022-11-20T11:08:19;1.80;;;1.70;;
32964;SDS011;19317;48.226;11.686;2022-11-20T11:13:23;1.70;;;1.60;;
32964;SDS011;19317;48.226;11.686;2022-11-20T11:18:27;2.17;;;2.00;;
32964;SDS011;19317;48.226;11.686;2022-11-20T11:23:28;1.90;;;1.70;;
32964;SDS011;19317;48.226;11.686;2022-11-20T11:28:21;1.70;;;1.60;;
32964;SDS011;19317;48.226;11.686;2022-11-20T11:33:18;1.73;;;1.63;;
32964;SDS011;19317;48.226;11.686;2022-11-20T11:38:12;1.83;;;1.70;;
32964;SDS011;19317;48.226;11.686;2022-11-20T11:43:06;1.70;;;1.60;;
32964;SDS011;19317;48.226;11.686;2022-11-20T11:48:07;1.80;;;1.67;;
32964;SDS011;19317;48.226;11.686;2022-11-20T11:53:17;2.13;;;1.73;;
32964;SDS011;19317;48.226;11.686;2022-11-20T11:58:11;1.60;;;1.50;;
32964;SDS011;19317;48.226;11.686;2022-11-20T12:03:24;1.80;;;1.70;;
32964;SDS011;19317;48.226;11.686;2022-11-20T12:08:23;1.90;;;1.80;;
32964;SDS011;19317;48.226;11.686;2022-11-20T12:13:22;1.70;;;1.60;;
32964;SDS011;19317;48.226;11.686;2022-11-20T12:18:20;1.53;;;1.43;;
32964;SDS011;19317;48.226;11.686;2022-11-20T12:23:17;1.70;;;1.60;;
32964;SDS011;19317;48.226;11.686;2022-11-20T12:52:55;1.97;;;1.77;;
32964;SDS011;19317;48.226;11.686;2022-11-20T12:58:10;2.80;;;1.77;;
32964;SDS011;19317;48.226;11.686;2022-11-20T13:03:11;1.83;;;1.73;;
32964;SDS011;19317;48.226;11.686;2022-11-20T13:08:06;1.70;;;1.60;;
32964;SDS011;19317;48.226;11.686;2022-11-20T13:18:16;2.07;;;1.90;;
32964;SDS011;19317;48.226;11.686;2022-11-20T13:23:07;1.70;;;1.60;;
32964;SDS011;19317;48.226;11.686;2022-11-20T13:27:59;1.80;;;1.70;;
32964;SDS011;19317;48.226;11.686;2022-11-20T13:32:57;2.13;;;2.03;;
32964;SDS011;19317;48.226;11.686;2022-11-20T13:37:48;2.17;;;1.97;;
32964;SDS011;19317;48.226;11.686;2022-11-20T13:43:17;2.00;;;1.90;;
32964;SDS011;19317;48.226;11.686;2022-11-20T13:48:19;1.97;;;1.87;;
32964;SDS011;19317;48.226;11.686;2022-11-20T13:53:22;1.83;;;1.73;;
32964;SDS011;19317;48.226;11.686;2022-11-20T14:03:18;2.10;;;1.93;;
32964;SDS011;19317;48.226;11.686;2022-11-20T14:08:13;2.00;;;1.90;;
32964;SDS011;19317;48.226;11.686;2022-11-20T14:13:11;2.17;;;2.00;;
32964;SDS011;19317;48.226;11.686;2022-11-20T14:18:13;2.20;;;2.00;;
32964;SDS011;19317;48.226;11.686;2022-11-20T14:23:04;2.40;;;2.00;;
32964;SDS011;19317;48.226;11.686;2022-11-20T14:27:59;2.10;;;1.90;;
32964;SDS011;19317;48.226;11.686;2022-11-20T14:32:51;2.30;;;2.10;;
32964;SDS011;19317;48.226;11.686;2022-11-20T14:37:43;2.33;;;2.13;;
32964;SDS011;19317;48.226;11.686;2022-11-20T14:42:34;2.03;;;1.93;;
32964;SDS011;19317;48.226;11.686;2022-11-20T14:47:25;2.17;;;1.80;;
32964;SDS011;19317;48.226;11.686;2022-11-20T14:52:18;1.90;;;1.80;;
32964;SDS011;19317;48.226;11.686;2022-11-20T14:57:18;1.93;;;1.83;;
32964;SDS011;19317;48.226;11.686;2022-11-20T15:02:11;2.03;;;1.83;;
32964;SDS011;19317;48.226;11.686;2022-11-20T15:07:02;2.00;;;1.90;;
32964;SDS011;19317;48.226;11.686;2022-11-20T15:16:44;2.20;;;2.00;;
32964;SDS011;19317;48.226;11.686;2022-11-20T15:21:35;1.80;;;1.70;;
32964;SDS011;19317;48.226;11.686;2022-11-20T15:26:26;1.73;;;1.63;;
32964;SDS011;19317;48.226;11.686;2022-11-20T15:31:18;1.90;;;1.80;;
32964;SDS011;19317;48.226;11.686;2022-11-20T15:36:09;1.80;;;1.70;;
32964;SDS011;19317;48.226;11.686;2022-11-20T15:41:00;1.70;;;1.60;;
32964;SDS011;19317;48.226;11.686;2022-11-20T15:45:53;3.03;;;1.80;;
32964;SDS011;19317;48.226;11.686;2022-11-20T15:51:01;2.07;;;1.97;;
32964;SDS011;19317;48.226;11.686;2022-11-20T15:55:53;1.90;;;1.70;;
32964;SDS011;19317;48.226;11.686;2022-11-20T16:00:44;1.70;;;1.60;;
32964;SDS011;19317;48.226;11.686;2022-11-20T16:05:35;2.03;;;1.60;;
32964;SDS011;19317;48.226;11.686;2022-11-20T16:10:26;2.27;;;1.50;;
32964;SDS011;19317;48.226;11.686;2022-11-20T16:15:17;2.00;;;1.90;;
32964;SDS011;19317;48.226;11.686;2022-11-20T16:20:10;1.70;;;1.60;;
32964;SDS011;19317;48.226;11.686;2022-11-20T16:25:01;1.60;;;1.50;;
32964;SDS011;19317;48.226;11.686;2022-11-20T16:29:52;2.00;;;1.90;;
32964;SDS011;19317;48.226;11.686;2022-11-20T16:34:42;2.10;;;2.00;;
32964;SDS011;19317;48.226;11.686;2022-11-20T16:39:33;1.87;;;1.77;;
32964;SDS011;19317;48.226;11.686;2022-11-20T16:44:24;2.20;;;2.00;;
32964;SDS011;19317;48.226;11.686;2022-11-20T16:49:16;2.50;;;2.13;;
32964;SDS011;19317;48.226;11.686;2022-11-20T16:54:07;2.47;;;2.27;;
32964;SDS011;19317;48.226;11.686;2022-11-20T16:58:59;2.87;;;1.70;;
32964;SDS011;19317;48.226;11.686;2022-11-20T17:04:00;2.20;;;2.10;;
32964;SDS011;19317;48.226;11.686;2022-11-20T17:08:52;2.53;;;2.33;;
32964;SDS011;19317;48.226;11.686;2022-11-20T17:13:43;5.73;;;4.27;;
32964;SDS011;19317;48.226;11.686;2022-11-20T17:18:34;11.27;;;7.93;;
32964;SDS011;19317;48.226;11.686;2022-11-20T17:23:29;8.73;;;6.57;;
32964;SDS011;19317;48.226;11.686;2022-11-20T17:28:20;6.37;;;5.47;;
32964;SDS011;19317;48.226;11.686;2022-11-20T17:33:10;4.30;;;3.57;;
32964;SDS011;19317;48.226;11.686;2022-11-20T17:38:01;2.50;;;2.30;;
32964;SDS011;19317;48.226;11.686;2022-11-20T17:42:52;3.13;;;2.70;;
32964;SDS011;19317;48.226;11.686;2022-11-20T17:47:43;2.97;;;2.77;;
32964;SDS011;19317;48.226;11.686;2022-11-20T17:52:34;4.30;;;3.80;;
32964;SDS011;19317;48.226;11.686;2022-11-20T17:57:25;6.90;;;5.10;;
32964;SDS011;19317;48.226;11.686;2022-11-20T18:02:16;6.33;;;4.60;;
32964;SDS011;19317;48.226;11.686;2022-11-20T18:07:06;10.60;;;7.27;;
32964;SDS011;19317;48.226;11.686;2022-11-20T18:11:57;4.97;;;4.20;;
32964;SDS011;19317;48.226;11.686;2022-11-20T18:16:49;7.30;;;4.93;;
32964;SDS011;19317;48.226;11.686;2022-11-20T18:21:41;4.50;;;3.93;;
32964;SDS011;19317;48.226;11.686;2022-11-20T18:26:32;4.00;;;3.60;;
32964;SDS011;19317;48.226;11.686;2022-11-20T18:31:23;3.50;;;3.13;;
32964;SDS011;19317;48.226;11.686;2022-11-20T18:36:15;3.77;;;2.87;;
32964;SDS011;19317;48.226;11.686;2022-11-20T18:41:07;4.13;;;3.13;;
32964;SDS011;19317;48.226;11.686;2022-11-20T18:46:01;3.00;;;2.80;;
32964;SDS011;19317;48.226;11.686;2022-11-20T18:50:52;3.33;;;2.80;;
32964;SDS011;19317;48.226;11.686;2022-11-20T18:55:43;3.60;;;3.30;;
32964;SDS011;19317;48.226;11.686;2022-11-20T19:00:34;4.57;;;3.47;;
32964;SDS011;19317;48.226;11.686;2022-11-20T19:05:25;3.70;;;2.93;;
32964;SDS011;19317;48.226;11.686;2022-11-20T19:10:17;3.63;;;3.33;;
32964;SDS011;19317;48.226;11.686;2022-11-20T19:15:08;3.87;;;3.20;;
32964;SDS011;19317;48.226;11.686;2022-11-20T19:19:59;4.90;;;3.17;;
32964;SDS011;19317;48.226;11.686;2022-11-20T19:24:50;6.23;;;4.20;;
32964;SDS011;19317;48.226;11.686;2022-11-20T19:29:41;4.17;;;3.40;;
32964;SDS011;19317;48.226;11.686;2022-11-20T19:34:32;3.93;;;2.83;;
32964;SDS011;19317;48.226;11.686;2022-11-20T19:39:22;4.17;;;3.30;;
32964;SDS011;19317;48.226;11.686;2022-11-20T19:44:14;4.37;;;3.20;;
32964;SDS011;19317;48.226;11.686;2022-11-20T19:49:05;4.17;;;3.10;;
32964;SDS011;19317;48.226;11.686;2022-11-20T19:53:57;3.83;;;3.23;;
32964;SDS011;19317;48.226;11.686;2022-11-20T19:58:48;4.33;;;3.40;;
32964;SDS011;19317;48.226;11.686;2022-11-20T20:03:39;4.50;;;3.57;;
32964;SDS011;19317;48.226;11.686;2022-11-20T20:08:30;3.97;;;3.30;;
32964;SDS011;19317;48.226;11.686;2022-11-20T20:13:21;4.83;;;3.60;;
32964;SDS011;19317;48.226;11.686;2022-11-20T20:18:12;3.70;;;3.23;;
32964;SDS011;19317;48.226;11.686;2022-11-20T20:23:03;3.50;;;3.20;;
32964;SDS011;19317;48.226;11.686;2022-11-20T20:27:54;4.97;;;4.13;;
32964;SDS011;19317;48.226;11.686;2022-11-20T20:32:45;4.67;;;3.97;;
32964;SDS011;19317;48.226;11.686;2022-11-20T20:37:36;4.50;;;3.70;;
32964;SDS011;19317;48.226;11.686;2022-11-20T20:42:28;5.77;;;4.57;;
32964;SDS011;19317;48.226;11.686;2022-11-20T20:47:19;5.07;;;3.80;;
32964;SDS011;19317;48.226;11.686;2022-11-20T20:52:10;6.23;;;3.97;;
32964;SDS011;19317;48.226;11.686;2022-11-20T20:57:00;5.13;;;3.60;;
32964;SDS011;19317;48.226;11.686;2022-11-20T21:01:51;3.50;;;3.20;;
32964;SDS011;19317;48.226;11.686;2022-11-20T21:06:42;4.73;;;3.30;;
32964;SDS011;19317;48.226;11.686;2022-11-20T21:11:33;3.17;;;2.97;;
32964;SDS011;19317;48.226;11.686;2022-11-20T21:16:24;4.57;;;3.80;;
32964;SDS011;19317;48.226;11.686;2022-11-20T21:21:15;4.97;;;3.67;;
32964;SDS011;19317;48.226;11.686;2022-11-20T21:26:07;4.70;;;3.73;;
32964;SDS011;19317;48.226;11.686;2022-11-20T21:31:11;5.97;;;3.87;;
32964;SDS011;19317;48.226;11.686;2022-11-20T21:36:02;3.37;;;3.00;;
32964;SDS011;19317;48.226;11.686;2022-11-20T21:40:55;2.87;;;2.43;;
32964;SDS011;19317;48.226;11.686;2022-11-20T21:45:46;1.87;;;1.77;;
32964;SDS011;19317;48.226;11.686;2022-11-20T21:50:37;2.10;;;2.00;;
32964;SDS011;19317;48.226;11.686;2022-11-20T21:55:28;1.80;;;1.70;;
32964;SDS011;19317;48.226;11.686;2022-11-20T22:00:19;2.00;;;1.90;;
32964;SDS011;19317;48.226;11.686;2022-11-20T22:05:10;2.63;;;1.83;;
32964;SDS011;19317;48.226;11.686;2022-11-20T22:10:01;1.67;;;1.57;;
32964;SDS011;19317;48.226;11.686;2022-11-20T22:14:52;2.13;;;1.97;;
32964;SDS011;19317;48.226;11.686;2022-11-20T22:19:42;1.97;;;1.87;;
32964;SDS011;19317;48.226;11.686;2022-11-20T22:24:33;2.30;;;2.10;;
32964;SDS011;19317;48.226;11.686;2022-11-20T22:29:24;2.07;;;1.97;;
32964;SDS011;19317;48.226;11.686;2022-11-20T22:34:15;2.30;;;2.03;;
32964;SDS011;19317;48.226;11.686;2022-11-20T22:39:06;2.47;;;2.10;;
32964;SDS011;19317;48.226;11.686;2022-11-20T22:48:52;1.90;;;1.80;;
32964;SDS011;19317;48.226;11.686;2022-11-20T22:53:43;1.60;;;1.50;;
32964;SDS011;19317;48.226;11.686;2022-11-20T22:58:35;1.70;;;1.60;;
32964;SDS011;19317;48.226;11.686;2022-11-20T23:03:26;1.50;;;1.40;;
32964;SDS011;19317;48.226;11.686;2022-11-20T23:08:20;2.10;;;1.90;;
32964;SDS011;19317;48.226;11.686;2022-11-20T23:13:11;1.67;;;1.57;;
32964;SDS011;19317;48.226;11.686;2022-11-20T23:18:02;1.90;;;1.80;;
32964;SDS011;19317;48.226;11.686;2022-11-20T23:22:53;1.67;;;1.40;;
32964;SDS011;19317;48.226;11.686;2022-11-20T23:27:44;1.53;;;1.43;;
32964;SDS011;19317;48.226;11.686;2022-11-20T23:32:35;1.40;;;1.30;;
32964;SDS011;19317;48.226;11.686;2022-11-20T23:37:25;1.53;;;1.43;;
32964;SDS011;19317;48.226;11.686;2022-11-20T23:42:16;1.60;;;1.50;;
32964;SDS011;19317;48.226;11.686;2022-11-20T23:47:07;1.50;;;1.40;;
32964;SDS011;19317;48.226;11.686;2022-11-20T23:51:58;1.57;;;1.40;;
32964;SDS011;19317;48.226;11.686;2022-11-20T23:56:49;1.60;;;1.50;;
